sensor_id;sensor_type;location;lat;lon;timestamp;pressure;altitude;pressure_sealevel;temperature;humidity
82951;BME280;72737;53.332;6.514;2023-10-19T00:02:08;99575.25;;;13.88;65.10
82951;BME280;72737;53.332;6.514;2023-10-19T00:04:33;99563.19;;;13.89;64.42
82951;BME280;72737;53.332;6.514;2023-10-19T00:07:02;99561.94;;;13.87;64.71
82951;BME280;72737;53.332;6.514;2023-10-19T00:09:30;99560.31;;;13.86;64.48
82951;BME280;72737;53.332;6.514;2023-10-19T00:12:02;99561.94;;;13.87;64.83
82951;BME280;72737;53.332;6.514;2023-10-19T00:14:28;99546.34;;;13.87;65.09
82951;BME280;72737;53.332;6.514;2023-10-19T00:16:53;99549.88;;;13.88;65.24
82951;BME280;72737;53.332;6.514;2023-10-19T00:19:19;99537.66;;;13.85;64.96
82951;BME280;72737;53.332;6.514;2023-10-19T00:21:46;99529.16;;;13.87;65.10
82951;BME280;72737;53.332;6.514;2023-10-19T00:24:20;99522.09;;;13.86;64.92
82951;BME280;72737;53.332;6.514;2023-10-19T00:26:49;99522.09;;;13.86;64.94
82951;BME280;72737;53.332;6.514;2023-10-19T00:29:19;99522.09;;;13.86;64.84
82951;BME280;72737;53.332;6.514;2023-10-19T00:32:00;99502.47;;;13.84;65.06
82951;BME280;72737;53.332;6.514;2023-10-19T00:34:28;99507.31;;;13.87;64.87
82951;BME280;72737;53.332;6.514;2023-10-19T00:36:56;99510.38;;;13.85;64.85
82951;BME280;72737;53.332;6.514;2023-10-19T00:39:22;99498.63;;;13.85;64.82
82951;BME280;72737;53.332;6.514;2023-10-19T00:41:52;99502.97;;;13.86;64.65
82951;BME280;72737;53.332;6.514;2023-10-19T00:44:22;99493.19;;;13.85;65.48
82951;BME280;72737;53.332;6.514;2023-10-19T00:46:50;99486.09;;;13.84;65.20
82951;BME280;72737;53.332;6.514;2023-10-19T00:49:26;99482.56;;;13.83;64.79
82951;BME280;72737;53.332;6.514;2023-10-19T00:51:52;99484.53;;;13.83;65.50
82951;BME280;72737;53.332;6.514;2023-10-19T00:54:34;99483.38;;;13.84;65.42
82951;BME280;72737;53.332;6.514;2023-10-19T00:57:03;99484.53;;;13.83;65.05
82951;BME280;72737;53.332;6.514;2023-10-19T00:59:33;99481.44;;;13.84;64.87
82951;BME280;72737;53.332;6.514;2023-10-19T01:02:08;99478.56;;;13.81;65.08
82951;BME280;72737;53.332;6.514;2023-10-19T01:04:45;99465.06;;;13.84;65.30
82951;BME280;72737;53.332;6.514;2023-10-19T01:07:19;99455.25;;;13.83;65.48
82951;BME280;72737;53.332;6.514;2023-10-19T01:09:49;99457.22;;;13.83;65.41
82951;BME280;72737;53.332;6.514;2023-10-19T01:12:19;99459.94;;;13.83;65.60
82951;BME280;72737;53.332;6.514;2023-10-19T01:17:49;99446.28;;;13.83;65.47
82951;BME280;72737;53.332;6.514;2023-10-19T01:20:32;99442.28;;;13.80;65.02
82951;BME280;72737;53.332;6.514;2023-10-19T01:23:02;99436.00;;;13.80;65.00
82951;BME280;72737;53.332;6.514;2023-10-19T01:25:44;99444.69;;;13.82;65.36
82951;BME280;72737;53.332;6.514;2023-10-19T01:28:16;99440.03;;;13.82;65.69
82951;BME280;72737;53.332;6.514;2023-10-19T01:30:45;99425.56;;;13.82;65.00
82951;BME280;72737;53.332;6.514;2023-10-19T01:33:10;99425.56;;;13.82;65.30
82951;BME280;72737;53.332;6.514;2023-10-19T01:35:41;99414.66;;;13.82;65.66
82951;BME280;72737;53.332;6.514;2023-10-19T01:38:25;99419.31;;;13.81;65.70
82951;BME280;72737;53.332;6.514;2023-10-19T01:40:50;99405.78;;;13.85;65.75
82951;BME280;72737;53.332;6.514;2023-10-19T01:43:17;99411.91;;;13.82;65.53
82951;BME280;72737;53.332;6.514;2023-10-19T01:45:51;99398.25;;;13.82;65.58
82951;BME280;72737;53.332;6.514;2023-10-19T01:48:19;99397.16;;;13.83;65.47
82951;BME280;72737;53.332;6.514;2023-10-19T01:50:48;99395.03;;;13.80;65.44
82951;BME280;72737;53.332;6.514;2023-10-19T01:53:16;99387.66;;;13.80;65.34
82951;BME280;72737;53.332;6.514;2023-10-19T01:55:44;99386.22;;;13.83;65.59
82951;BME280;72737;53.332;6.514;2023-10-19T01:58:10;99386.34;;;13.86;65.30
82951;BME280;72737;53.332;6.514;2023-10-19T02:00:36;99375.75;;;13.85;65.88
82951;BME280;72737;53.332;6.514;2023-10-19T02:03:08;99372.72;;;13.86;65.99
82951;BME280;72737;53.332;6.514;2023-10-19T02:05:34;99380.09;;;13.86;65.59
82951;BME280;72737;53.332;6.514;2023-10-19T02:08:06;99367.56;;;13.85;65.37
82951;BME280;72737;53.332;6.514;2023-10-19T02:10:35;99357.31;;;13.82;65.97
82951;BME280;72737;53.332;6.514;2023-10-19T02:13:02;99356.50;;;13.81;65.50
82951;BME280;72737;53.332;6.514;2023-10-19T02:15:33;99356.97;;;13.83;65.89
82951;BME280;72737;53.332;6.514;2023-10-19T02:18:01;99348.63;;;13.80;65.97
82951;BME280;72737;53.332;6.514;2023-10-19T02:20:28;99351.84;;;13.82;65.32
82951;BME280;72737;53.332;6.514;2023-10-19T02:22:55;99346.38;;;13.82;65.79
82951;BME280;72737;53.332;6.514;2023-10-19T02:25:23;99344.78;;;13.81;65.77
82951;BME280;72737;53.332;6.514;2023-10-19T02:27:50;99352.47;;;13.79;66.08
82951;BME280;72737;53.332;6.514;2023-10-19T02:30:17;99340.78;;;13.78;65.93
82951;BME280;72737;53.332;6.514;2023-10-19T02:32:43;99337.72;;;13.80;65.44
82951;BME280;72737;53.332;6.514;2023-10-19T02:35:08;99336.09;;;13.79;65.54
82951;BME280;72737;53.332;6.514;2023-10-19T02:37:34;99338.84;;;13.79;65.53
82951;BME280;72737;53.332;6.514;2023-10-19T02:40:00;99327.13;;;13.78;65.40
82951;BME280;72737;53.332;6.514;2023-10-19T02:42:26;99333.84;;;13.81;65.86
82951;BME280;72737;53.332;6.514;2023-10-19T02:44:51;99331.44;;;13.79;65.36
82951;BME280;72737;53.332;6.514;2023-10-19T02:47:16;99324.41;;;13.78;65.37
82951;BME280;72737;53.332;6.514;2023-10-19T02:49:42;99320.72;;;13.74;65.81
82951;BME280;72737;53.332;6.514;2023-10-19T02:52:16;99314.13;;;13.75;65.34
82951;BME280;72737;53.332;6.514;2023-10-19T02:54:41;99322.63;;;13.73;65.66
82951;BME280;72737;53.332;6.514;2023-10-19T02:57:07;99316.03;;;13.74;65.70
82951;BME280;72737;53.332;6.514;2023-10-19T02:59:35;99302.75;;;13.73;65.86
82951;BME280;72737;53.332;6.514;2023-10-19T03:02:02;99302.56;;;13.78;65.99
82951;BME280;72737;53.332;6.514;2023-10-19T03:04:36;99300.47;;;13.75;66.03
82951;BME280;72737;53.332;6.514;2023-10-19T03:07:03;99294.22;;;13.74;66.07
82951;BME280;72737;53.332;6.514;2023-10-19T03:09:29;99296.94;;;13.74;65.54
82951;BME280;72737;53.332;6.514;2023-10-19T03:11:56;99298.53;;;13.75;65.52
82951;BME280;72737;53.332;6.514;2023-10-19T03:14:25;99293.09;;;13.75;65.87
82951;BME280;72737;53.332;6.514;2023-10-19T03:16:52;99299.22;;;13.72;65.90
82951;BME280;72737;53.332;6.514;2023-10-19T03:19:19;99291.03;;;13.72;65.51
82951;BME280;72737;53.332;6.514;2023-10-19T03:21:45;99290.22;;;13.72;65.82
82951;BME280;72737;53.332;6.514;2023-10-19T03:24:15;99288.94;;;13.69;66.09
82951;BME280;72737;53.332;6.514;2023-10-19T03:26:59;99279.13;;;13.68;65.52
82951;BME280;72737;53.332;6.514;2023-10-19T03:29:25;99280.41;;;13.71;66.11
82951;BME280;72737;53.332;6.514;2023-10-19T03:31:57;99280.41;;;13.71;65.91
82951;BME280;72737;53.332;6.514;2023-10-19T03:34:24;99285.06;;;13.70;66.05
82951;BME280;72737;53.332;6.514;2023-10-19T03:36:50;99270.31;;;13.71;65.91
82951;BME280;72737;53.332;6.514;2023-10-19T03:39:19;99267.91;;;13.70;65.56
82951;BME280;72737;53.332;6.514;2023-10-19T03:41:46;99267.09;;;13.69;65.53
82951;BME280;72737;53.332;6.514;2023-10-19T03:44:12;99267.09;;;13.69;65.64
82951;BME280;72737;53.332;6.514;2023-10-19T03:46:53;99256.16;;;13.69;66.07
82951;BME280;72737;53.332;6.514;2023-10-19T03:49:22;99260.03;;;13.68;65.65
82951;BME280;72737;53.332;6.514;2023-10-19T03:51:48;99261.31;;;13.71;65.82
82951;BME280;72737;53.332;6.514;2023-10-19T03:54:27;99261.63;;;13.69;65.62
82951;BME280;72737;53.332;6.514;2023-10-19T03:56:54;99254.25;;;13.70;66.13
82951;BME280;72737;53.332;6.514;2023-10-19T03:59:22;99264.97;;;13.75;65.62
82951;BME280;72737;53.332;6.514;2023-10-19T04:01:54;99264.19;;;13.74;65.77
82951;BME280;72737;53.332;6.514;2023-10-19T04:04:20;99263.66;;;13.81;65.54
82951;BME280;72737;53.332;6.514;2023-10-19T04:06:46;99263.16;;;13.88;65.52
82951;BME280;72737;53.332;6.514;2023-10-19T04:09:14;99252.06;;;13.84;66.11
82951;BME280;72737;53.332;6.514;2023-10-19T04:11:42;99251.81;;;13.77;66.22
82951;BME280;72737;53.332;6.514;2023-10-19T04:14:17;99254.88;;;13.75;66.54
82951;BME280;72737;53.332;6.514;2023-10-19T04:16:43;99250.34;;;13.80;66.54
82951;BME280;72737;53.332;6.514;2023-10-19T04:19:13;99244.41;;;13.78;66.38
82951;BME280;72737;53.332;6.514;2023-10-19T04:21:40;99240.41;;;13.75;66.23
82951;BME280;72737;53.332;6.514;2023-10-19T04:24:09;99242.53;;;13.69;66.37
82951;BME280;72737;53.332;6.514;2023-10-19T04:26:35;99244.75;;;13.76;65.74
82951;BME280;72737;53.332;6.514;2023-10-19T04:29:06;99238.81;;;13.74;66.50
82951;BME280;72737;53.332;6.514;2023-10-19T04:31:43;99240.53;;;13.79;65.82
82951;BME280;72737;53.332;6.514;2023-10-19T04:34:18;99252.25;;;13.79;65.65
82951;BME280;72737;53.332;6.514;2023-10-19T04:36:46;99247.78;;;13.74;65.89
82951;BME280;72737;53.332;6.514;2023-10-19T04:39:12;99237.69;;;13.75;66.27
82951;BME280;72737;53.332;6.514;2023-10-19T04:41:41;99247.16;;;13.78;66.19
82951;BME280;72737;53.332;6.514;2023-10-19T04:44:08;99243.44;;;13.82;66.43
82951;BME280;72737;53.332;6.514;2023-10-19T04:46:34;99247.09;;;13.86;65.55
82951;BME280;72737;53.332;6.514;2023-10-19T04:49:00;99246.00;;;13.79;66.15
82951;BME280;72737;53.332;6.514;2023-10-19T04:51:26;99248.34;;;13.68;66.12
82951;BME280;72737;53.332;6.514;2023-10-19T04:53:51;99250.44;;;13.62;66.25
82951;BME280;72737;53.332;6.514;2023-10-19T04:56:37;99247.03;;;13.65;66.08
82951;BME280;72737;53.332;6.514;2023-10-19T04:59:03;99249.81;;;13.57;65.80
82951;BME280;72737;53.332;6.514;2023-10-19T05:01:29;99246.94;;;13.53;66.41
82951;BME280;72737;53.332;6.514;2023-10-19T05:03:54;99256.88;;;13.58;66.23
82951;BME280;72737;53.332;6.514;2023-10-19T05:06:19;99257.06;;;13.53;65.66
82951;BME280;72737;53.332;6.514;2023-10-19T05:08:48;99266.69;;;13.50;66.26
82951;BME280;72737;53.332;6.514;2023-10-19T05:11:13;99263.16;;;13.50;65.90
82951;BME280;72737;53.332;6.514;2023-10-19T05:13:39;99256.91;;;13.49;66.41
82951;BME280;72737;53.332;6.514;2023-10-19T05:16:04;99255.28;;;13.48;65.84
82951;BME280;72737;53.332;6.514;2023-10-19T05:18:30;99248.72;;;13.49;66.00
82951;BME280;72737;53.332;6.514;2023-10-19T05:20:56;99246.66;;;13.46;65.61
82951;BME280;72737;53.332;6.514;2023-10-19T05:23:25;99243.00;;;13.42;66.41
82951;BME280;72737;53.332;6.514;2023-10-19T05:26:00;99251.63;;;13.44;65.92
82951;BME280;72737;53.332;6.514;2023-10-19T05:28:27;99243.16;;;13.37;66.39
82951;BME280;72737;53.332;6.514;2023-10-19T05:30:53;99242.38;;;13.37;66.39
82951;BME280;72737;53.332;6.514;2023-10-19T05:33:19;99233.56;;;13.31;66.49
82951;BME280;72737;53.332;6.514;2023-10-19T05:35:48;99233.56;;;13.31;66.68
82951;BME280;72737;53.332;6.514;2023-10-19T05:38:14;99234.69;;;13.30;66.65
82951;BME280;72737;53.332;6.514;2023-10-19T05:40:39;99237.88;;;13.32;66.14
82951;BME280;72737;53.332;6.514;2023-10-19T05:43:08;99254.44;;;13.27;66.47
82951;BME280;72737;53.332;6.514;2023-10-19T05:45:34;99252.81;;;13.26;66.73
82951;BME280;72737;53.332;6.514;2023-10-19T05:48:01;99258.75;;;13.28;66.38
82951;BME280;72737;53.332;6.514;2023-10-19T05:50:29;99255.56;;;13.26;66.06
82951;BME280;72737;53.332;6.514;2023-10-19T05:52:55;99254.28;;;13.23;66.79
82951;BME280;72737;53.332;6.514;2023-10-19T05:55:20;99259.41;;;13.25;66.67
82951;BME280;72737;53.332;6.514;2023-10-19T05:57:49;99262.81;;;13.22;66.54
82951;BME280;72737;53.332;6.514;2023-10-19T06:00:15;99252.69;;;13.22;66.65
82951;BME280;72737;53.332;6.514;2023-10-19T06:02:50;99259.59;;;13.20;66.88
82951;BME280;72737;53.332;6.514;2023-10-19T06:05:16;99253.31;;;13.19;66.55
82951;BME280;72737;53.332;6.514;2023-10-19T06:07:46;99262.81;;;13.22;66.86
82951;BME280;72737;53.332;6.514;2023-10-19T06:10:17;99268.09;;;13.18;66.33
82951;BME280;72737;53.332;6.514;2023-10-19T06:12:44;99277.06;;;13.19;66.39
82951;BME280;72737;53.332;6.514;2023-10-19T06:15:11;99270.34;;;13.16;66.37
82951;BME280;72737;53.332;6.514;2023-10-19T06:17:38;99261.38;;;13.16;66.79
82951;BME280;72737;53.332;6.514;2023-10-19T06:20:09;99262.47;;;13.15;66.53
82951;BME280;72737;53.332;6.514;2023-10-19T06:22:47;99260.88;;;13.14;66.94
82951;BME280;72737;53.332;6.514;2023-10-19T06:25:17;99259.91;;;13.10;66.69
82951;BME280;72737;53.332;6.514;2023-10-19T06:27:43;99275.63;;;13.13;66.50
82951;BME280;72737;53.332;6.514;2023-10-19T06:30:09;99288.78;;;13.11;66.49
82951;BME280;72737;53.332;6.514;2023-10-19T06:32:36;99294.22;;;13.11;66.66
82951;BME280;72737;53.332;6.514;2023-10-19T06:35:02;99287.97;;;13.10;66.40
82951;BME280;72737;53.332;6.514;2023-10-19T06:37:28;99289.44;;;12.99;66.67
82951;BME280;72737;53.332;6.514;2023-10-19T06:39:54;99301.47;;;13.07;66.72
82951;BME280;72737;53.332;6.514;2023-10-19T06:42:19;99306.91;;;13.07;66.68
82951;BME280;72737;53.332;6.514;2023-10-19T06:44:44;99296.63;;;13.04;66.90
82951;BME280;72737;53.332;6.514;2023-10-19T06:47:10;99294.25;;;13.02;67.41
82951;BME280;72737;53.332;6.514;2023-10-19T06:49:37;99301.16;;;13.00;67.38
82951;BME280;72737;53.332;6.514;2023-10-19T06:52:03;99291.34;;;12.99;66.82
82951;BME280;72737;53.332;6.514;2023-10-19T06:54:30;99304.69;;;13.00;66.88
82951;BME280;72737;53.332;6.514;2023-10-19T06:56:56;99297.13;;;13.06;66.89
82951;BME280;72737;53.332;6.514;2023-10-19T06:59:21;99303.22;;;13.03;66.59
82951;BME280;72737;53.332;6.514;2023-10-19T07:01:47;99303.56;;;13.01;66.83
82951;BME280;72737;53.332;6.514;2023-10-19T07:04:12;99308.66;;;13.03;67.19
82951;BME280;72737;53.332;6.514;2023-10-19T07:06:38;99319.75;;;12.98;67.45
82951;BME280;72737;53.332;6.514;2023-10-19T07:09:04;99322.66;;;13.01;66.64
82951;BME280;72737;53.332;6.514;2023-10-19T07:11:31;99325.69;;;13.00;67.12
82951;BME280;72737;53.332;6.514;2023-10-19T07:13:59;99321.69;;;12.97;67.53
82951;BME280;72737;53.332;6.514;2023-10-19T07:16:25;99315.44;;;12.97;67.35
82951;BME280;72737;53.332;6.514;2023-10-19T07:18:51;99326.34;;;12.97;66.91
82951;BME280;72737;53.332;6.514;2023-10-19T07:21:18;99318.16;;;12.97;67.45
82951;BME280;72737;53.332;6.514;2023-10-19T07:23:43;99332.41;;;12.94;67.98
82951;BME280;72737;53.332;6.514;2023-10-19T07:26:11;99334.03;;;12.95;67.20
82951;BME280;72737;53.332;6.514;2023-10-19T07:28:39;99324.59;;;12.92;67.60
82951;BME280;72737;53.332;6.514;2023-10-19T07:31:05;99314.47;;;12.93;67.36
82951;BME280;72737;53.332;6.514;2023-10-19T07:33:32;99310.94;;;12.92;67.41
82951;BME280;72737;53.332;6.514;2023-10-19T07:35:59;99325.69;;;12.91;67.92
82951;BME280;72737;53.332;6.514;2023-10-19T07:38:26;99325.22;;;12.89;67.64
82951;BME280;72737;53.332;6.514;2023-10-19T07:40:54;99330.84;;;12.93;67.23
82951;BME280;72737;53.332;6.514;2023-10-19T07:43:19;99326.97;;;12.94;67.43
82951;BME280;72737;53.332;6.514;2023-10-19T07:45:48;99319.94;;;12.93;67.26
82951;BME280;72737;53.332;6.514;2023-10-19T07:48:14;99331.97;;;12.92;67.78
82951;BME280;72737;53.332;6.514;2023-10-19T07:50:40;99324.59;;;12.92;67.32
82951;BME280;72737;53.332;6.514;2023-10-19T07:53:06;99323.78;;;12.92;68.01
82951;BME280;72737;53.332;6.514;2023-10-19T07:55:31;99324.91;;;12.90;67.53
82951;BME280;72737;53.332;6.514;2023-10-19T07:57:57;99326.66;;;12.86;67.73
82951;BME280;72737;53.332;6.514;2023-10-19T08:00:25;99324.09;;;12.90;67.72
82951;BME280;72737;53.332;6.514;2023-10-19T08:02:54;99322.34;;;12.85;67.75
82951;BME280;72737;53.332;6.514;2023-10-19T08:05:19;99316.56;;;12.87;67.48
82951;BME280;72737;53.332;6.514;2023-10-19T08:07:45;99320.56;;;12.89;67.73
82951;BME280;72737;53.332;6.514;2023-10-19T08:10:13;99326.66;;;12.86;68.15
82951;BME280;72737;53.332;6.514;2023-10-19T08:12:40;99325.56;;;12.87;67.87
82951;BME280;72737;53.332;6.514;2023-10-19T08:15:10;99329.06;;;12.88;67.85
82951;BME280;72737;53.332;6.514;2023-10-19T08:17:42;99324.91;;;12.82;68.14
82951;BME280;72737;53.332;6.514;2023-10-19T08:20:09;99332.59;;;12.88;67.72
82951;BME280;72737;53.332;6.514;2023-10-19T08:22:38;99330.50;;;12.85;67.87
82951;BME280;72737;53.332;6.514;2023-10-19T08:25:04;99328.28;;;12.87;67.56
82951;BME280;72737;53.332;6.514;2023-10-19T08:27:30;99341.41;;;12.85;67.43
82951;BME280;72737;53.332;6.514;2023-10-19T08:29:56;99334.34;;;12.84;67.58
82951;BME280;72737;53.332;6.514;2023-10-19T08:32:22;99337.75;;;12.81;68.14
82951;BME280;72737;53.332;6.514;2023-10-19T08:34:47;99341.59;;;12.80;68.19
82951;BME280;72737;53.332;6.514;2023-10-19T08:37:12;99343.66;;;12.83;67.78
82951;BME280;72737;53.332;6.514;2023-10-19T08:39:38;99340.47;;;12.81;67.36
82951;BME280;72737;53.332;6.514;2023-10-19T08:42:06;99338.53;;;12.82;67.75
82951;BME280;72737;53.332;6.514;2023-10-19T08:44:32;99337.75;;;12.81;68.03
82951;BME280;72737;53.332;6.514;2023-10-19T08:46:57;99347.03;;;12.80;68.19
82951;BME280;72737;53.332;6.514;2023-10-19T08:49:24;99342.84;;;12.83;67.64
82951;BME280;72737;53.332;6.514;2023-10-19T08:51:51;99339.34;;;12.82;67.96
82951;BME280;72737;53.332;6.514;2023-10-19T08:54:17;99339.66;;;12.81;67.83
82951;BME280;72737;53.332;6.514;2023-10-19T08:56:43;99340.78;;;12.80;67.60
82951;BME280;72737;53.332;6.514;2023-10-19T08:59:11;99340.28;;;12.78;67.58
82951;BME280;72737;53.332;6.514;2023-10-19T09:01:37;99342.69;;;12.79;67.83
82951;BME280;72737;53.332;6.514;2023-10-19T09:04:03;99344.31;;;12.80;67.91
82951;BME280;72737;53.332;6.514;2023-10-19T09:06:35;99353.59;;;12.79;67.68
82951;BME280;72737;53.332;6.514;2023-10-19T09:09:13;99345.72;;;12.78;67.82
82951;BME280;72737;53.332;6.514;2023-10-19T09:11:51;99340.28;;;12.78;67.76
82951;BME280;72737;53.332;6.514;2023-10-19T09:14:34;99347.19;;;12.75;67.74
82951;BME280;72737;53.332;6.514;2023-10-19T09:17:01;99343.19;;;12.81;67.45
82951;BME280;72737;53.332;6.514;2023-10-19T09:19:44;99348.16;;;12.79;67.75
82951;BME280;72737;53.332;6.514;2023-10-19T09:22:12;99344.31;;;12.80;68.01
82951;BME280;72737;53.332;6.514;2023-10-19T09:24:54;99338.34;;;12.78;67.95
82951;BME280;72737;53.332;6.514;2023-10-19T09:27:21;99344.63;;;12.79;67.41
82951;BME280;72737;53.332;6.514;2023-10-19T09:29:49;99344.16;;;12.77;67.42
82951;BME280;72737;53.332;6.514;2023-10-19T09:32:16;99343.34;;;12.76;67.58
82951;BME280;72737;53.332;6.514;2023-10-19T09:34:44;99338.53;;;12.73;67.64
82951;BME280;72737;53.332;6.514;2023-10-19T09:37:10;99342.41;;;12.72;67.56
82951;BME280;72737;53.332;6.514;2023-10-19T09:39:37;99340.13;;;12.74;68.32
82951;BME280;72737;53.332;6.514;2023-10-19T09:42:07;99338.69;;;12.77;67.58
82951;BME280;72737;53.332;6.514;2023-10-19T09:44:40;99340.63;;;12.76;67.64
82951;BME280;72737;53.332;6.514;2023-10-19T09:47:11;99338.53;;;12.73;67.88
82951;BME280;72737;53.332;6.514;2023-10-19T09:49:39;99336.59;;;12.74;67.71
82951;BME280;72737;53.332;6.514;2023-10-19T09:52:04;99333.88;;;12.74;67.53
82951;BME280;72737;53.332;6.514;2023-10-19T09:54:45;99332.44;;;12.76;67.61
82951;BME280;72737;53.332;6.514;2023-10-19T09:57:18;99333.06;;;12.73;67.78
82951;BME280;72737;53.332;6.514;2023-10-19T09:59:49;99333.56;;;12.75;67.55
82951;BME280;72737;53.332;6.514;2023-10-19T10:02:19;99331.50;;;12.72;68.03
82951;BME280;72737;53.332;6.514;2023-10-19T10:04:47;99334.84;;;12.78;67.89
82951;BME280;72737;53.332;6.514;2023-10-19T10:07:14;99330.34;;;12.73;68.09
82951;BME280;72737;53.332;6.514;2023-10-19T10:09:41;99334.69;;;12.74;67.75
82951;BME280;72737;53.332;6.514;2023-10-19T10:12:20;99341.75;;;12.75;67.45
82951;BME280;72737;53.332;6.514;2023-10-19T10:15:12;99331.94;;;12.74;67.94
82951;BME280;72737;53.332;6.514;2023-10-19T10:17:41;99324.56;;;12.75;67.79
82951;BME280;72737;53.332;6.514;2023-10-19T10:22:45;99320.25;;;12.74;68.17
82951;BME280;72737;53.332;6.514;2023-10-19T10:25:29;99326.19;;;12.76;67.78
82951;BME280;72737;53.332;6.514;2023-10-19T10:27:56;99326.50;;;12.74;68.02
82951;BME280;72737;53.332;6.514;2023-10-19T10:30:22;99330.03;;;12.75;67.39
82951;BME280;72737;53.332;6.514;2023-10-19T10:32:51;99331.50;;;12.72;67.46
82951;BME280;72737;53.332;6.514;2023-10-19T10:38:03;99323.31;;;12.72;67.43
82951;BME280;72737;53.332;6.514;2023-10-19T10:40:31;99324.44;;;12.71;68.09
82951;BME280;72737;53.332;6.514;2023-10-19T10:43:06;99322.97;;;12.74;67.79
82951;BME280;72737;53.332;6.514;2023-10-19T10:45:32;99323.63;;;12.71;67.59
82951;BME280;72737;53.332;6.514;2023-10-19T10:47:57;99320.59;;;12.72;67.89
82951;BME280;72737;53.332;6.514;2023-10-19T10:50:26;99331.50;;;12.72;67.41
82951;BME280;72737;53.332;6.514;2023-10-19T10:52:54;99314.97;;;12.69;67.89
82951;BME280;72737;53.332;6.514;2023-10-19T10:55:23;99321.69;;;12.71;67.74
82951;BME280;72737;53.332;6.514;2023-10-19T10:57:50;99322.16;;;12.73;67.51
82951;BME280;72737;53.332;6.514;2023-10-19T11:00:16;99323.63;;;12.71;67.94
82951;BME280;72737;53.332;6.514;2023-10-19T11:02:44;99315.91;;;12.73;68.14
82951;BME280;72737;53.332;6.514;2023-10-19T11:05:14;99316.72;;;12.73;67.64
82951;BME280;72737;53.332;6.514;2023-10-19T11:07:41;99320.59;;;12.72;67.31
82951;BME280;72737;53.332;6.514;2023-10-19T11:10:07;99331.50;;;12.72;67.60
82951;BME280;72737;53.332;6.514;2023-10-19T11:12:35;99330.69;;;12.72;67.99
82951;BME280;72737;53.332;6.514;2023-10-19T11:15:01;99338.53;;;12.73;67.39
82951;BME280;72737;53.332;6.514;2023-10-19T11:17:42;99345.44;;;12.71;67.65
82951;BME280;72737;53.332;6.514;2023-10-19T11:20:08;99339.66;;;12.72;67.92
82951;BME280;72737;53.332;6.514;2023-10-19T11:22:48;99336.94;;;12.72;67.76
82951;BME280;72737;53.332;6.514;2023-10-19T11:27:44;99331.50;;;12.72;67.55
82951;BME280;72737;53.332;6.514;2023-10-19T11:30:10;99344.47;;;12.75;67.90
82951;BME280;72737;53.332;6.514;2023-10-19T11:32:37;99338.53;;;12.73;67.73
82951;BME280;72737;53.332;6.514;2023-10-19T11:35:03;99344.78;;;12.74;67.46
82951;BME280;72737;53.332;6.514;2023-10-19T11:37:29;99344.31;;;12.72;67.94
82951;BME280;72737;53.332;6.514;2023-10-19T11:39:55;99336.59;;;12.74;67.71
82951;BME280;72737;53.332;6.514;2023-10-19T11:42:20;99334.53;;;12.71;67.88
82951;BME280;72737;53.332;6.514;2023-10-19T11:44:46;99336.44;;;12.70;67.76
82951;BME280;72737;53.332;6.514;2023-10-19T11:47:12;99331.50;;;12.72;67.94
82951;BME280;72737;53.332;6.514;2023-10-19T11:49:39;99336.13;;;12.72;67.69
82951;BME280;72737;53.332;6.514;2023-10-19T11:52:07;99334.84;;;12.69;67.60
82951;BME280;72737;53.332;6.514;2023-10-19T11:54:33;99345.75;;;12.69;67.98
82951;BME280;72737;53.332;6.514;2023-10-19T11:56:59;99327.16;;;12.71;67.99
82951;BME280;72737;53.332;6.514;2023-10-19T11:59:25;99329.06;;;12.71;67.20
82951;BME280;72737;53.332;6.514;2023-10-19T12:01:51;99321.22;;;12.69;67.94
82951;BME280;72737;53.332;6.514;2023-10-19T12:04:17;99323.63;;;12.71;67.30
82951;BME280;72737;53.332;6.514;2023-10-19T12:06:43;99315.75;;;12.69;67.39
82951;BME280;72737;53.332;6.514;2023-10-19T12:09:11;99309.84;;;12.67;67.95
82951;BME280;72737;53.332;6.514;2023-10-19T12:11:41;99307.59;;;12.69;68.16
82951;BME280;72737;53.332;6.514;2023-10-19T12:14:06;99303.75;;;12.70;67.79
82951;BME280;72737;53.332;6.514;2023-10-19T12:16:37;99305.66;;;12.70;67.37
82951;BME280;72737;53.332;6.514;2023-10-19T12:19:04;99305.66;;;12.70;67.52
82951;BME280;72737;53.332;6.514;2023-10-19T12:21:29;99304.06;;;12.69;67.52
82951;BME280;72737;53.332;6.514;2023-10-19T12:23:56;99297.78;;;12.68;68.01
82951;BME280;72737;53.332;6.514;2023-10-19T12:26:22;99310.31;;;12.69;67.75
82951;BME280;72737;53.332;6.514;2023-10-19T12:28:48;99298.28;;;12.70;67.51
82951;BME280;72737;53.332;6.514;2023-10-19T12:31:14;99303.75;;;12.70;67.61
82951;BME280;72737;53.332;6.514;2023-10-19T12:33:43;99300.22;;;12.70;67.55
82951;BME280;72737;53.332;6.514;2023-10-19T12:36:10;99297.00;;;12.68;67.55
82951;BME280;72737;53.332;6.514;2023-10-19T12:38:47;99296.69;;;12.69;68.10
82951;BME280;72737;53.332;6.514;2023-10-19T12:41:14;99299.72;;;12.68;67.75
82951;BME280;72737;53.332;6.514;2023-10-19T12:43:39;99301.00;;;12.70;67.80
82951;BME280;72737;53.332;6.514;2023-10-19T12:46:05;99307.91;;;12.68;67.48
82951;BME280;72737;53.332;6.514;2023-10-19T12:48:34;99318.78;;;12.68;67.57
82951;BME280;72737;53.332;6.514;2023-10-19T12:51:09;99321.22;;;12.69;67.78
82951;BME280;72737;53.332;6.514;2023-10-19T12:53:37;99322.50;;;12.72;67.54
82951;BME280;72737;53.332;6.514;2023-10-19T12:56:04;99307.59;;;12.69;67.70
82951;BME280;72737;53.332;6.514;2023-10-19T12:58:31;99303.25;;;12.68;67.53
82951;BME280;72737;53.332;6.514;2023-10-19T13:00:57;99308.69;;;12.68;67.42
82951;BME280;72737;53.332;6.514;2023-10-19T13:03:24;99298.94;;;12.67;67.53
82951;BME280;72737;53.332;6.514;2023-10-19T13:05:52;99291.88;;;12.66;67.50
82951;BME280;72737;53.332;6.514;2023-10-19T13:08:18;99293.50;;;12.67;67.65
82951;BME280;72737;53.332;6.514;2023-10-19T13:10:46;99289.63;;;12.68;67.43
82951;BME280;72737;53.332;6.514;2023-10-19T13:13:14;99301.66;;;12.67;67.44
82951;BME280;72737;53.332;6.514;2023-10-19T13:15:45;99293.50;;;12.67;67.95
82951;BME280;72737;53.332;6.514;2023-10-19T13:18:12;99296.22;;;12.67;68.02